Darregueira, Argentina
Current Conditions -  °F | °C
As of 8:00 PM on Thursday 20 Nov 2014 (Local Time) from SAZN Reporting Station
Broken Clouds Broken Clouds  
Wind Chill: 57°   Ceiling: 5600
Heat Index: 57°   Visibility: 6mi
Dew Point: 50°   Wind: 7mph
Humidity: 77%   Direction: 270°W
Pressure: 30.09"   Gusts: NA
Location:  37.7°S, 63.17°W
Report Text: SAZN 202300Z 27006KT 9999 SCT035 BKN05614/10 Q1019
Loading
Personal Weather Stations






























Interactive Weather Map New forecast layout! Learn more

10-Day Weather Forecast

Advertisements
Track Severe Weather on mobile